Greenfield Center, New York
Current Conditions -  °F | °C
As of 1:53 PM on Friday 24 Oct 2014 (Local Time) from KGFL Reporting Station
Overcast Overcast  
Wind Chill: 46°   Ceiling: 1100
Heat Index: 46°   Visibility: 10mi
Dew Point: 43°   Wind: 0mph
Humidity: 89%   Direction: NA
Pressure: 29.82"   Gusts: NA
Location:  43.13°N, 73.85°W
Report Text: KGFL 241753Z AUTO 00000KT 10SM OVC011 08/06 A2982 RMK AO2 SLP102 60003 T00780061 10078 20067 58011
Loading
Personal Weather Stations






























Interactive Weather Map
Tropical Storm Tracking
New forecast layout! Learn more

10-Day Weather Forecast

Advertisements
Track Severe Weather on mobile